Time;durP1;ratioP1;P1;durP2;ratioP2;P2;SDS_P1;SDS_P2;PMS_P1;PMS_P2;Temp;Humidity;BMP_temperature;BMP_pressure;BME280_temperature;BME280_humidity;BME280_pressure;Samples;Min_cycle;Max_cycle;Signal;HPM_P1;HPM_P2
2023/06/24 00:02:05;;;;;;;13.77;5.77;;;;;;;;;;5049489;28;20378;-72
2023/06/24 00:04:30;;;;;;;9.20;5.88;;;;;;;;;;5052851;28;20251;-72
2023/06/24 00:06:59;;;;;;;12.63;6.40;;;;;;;;;;5053134;28;20383;-72
2023/06/24 00:09:24;;;;;;;10.75;5.50;;;;;;;;;;5052014;28;20032;-72
2023/06/24 00:11:49;;;;;;;14.00;5.80;;;;;;;;;;5044726;28;20025;-72
2023/06/24 00:14:15;;;;;;;9.77;5.80;;;;;;;;;;5048952;28;20028;-72
2023/06/24 00:16:41;;;;;;;11.23;5.90;;;;;;;;;;5052153;28;20021;-72
2023/06/24 00:19:08;;;;;;;11.77;6.07;;;;;;;;;;5052824;28;20083;-72
2023/06/24 00:21:33;;;;;;;18.05;7.10;;;;;;;;;;5052349;28;20017;-72
2023/06/24 00:24:01;;;;;;;12.57;5.65;;;;;;;;;;5050822;28;20048;-72
2023/06/24 00:26:26;;;;;;;11.93;6.00;;;;;;;;;;5045845;28;20104;-72
2023/06/24 00:28:51;;;;;;;11.40;6.07;;;;;;;;;;5051423;28;20108;-72
2023/06/24 00:31:16;;;;;;;12.40;6.90;;;;;;;;;;5049443;28;20271;-72
2023/06/24 00:33:42;;;;;;;9.70;5.68;;;;;;;;;;5054913;28;20460;-72
2023/06/24 00:36:11;;;;;;;11.20;6.27;;;;;;;;;;5052385;28;20017;-72
2023/06/24 00:38:37;;;;;;;13.18;6.07;;;;;;;;;;5049996;28;20259;-72
2023/06/24 00:41:02;;;;;;;11.45;5.85;;;;;;;;;;5051484;28;20036;-72
2023/06/24 00:43:29;;;;;;;11.90;5.70;;;;;;;;;;5048824;28;20028;-72
2023/06/24 00:45:55;;;;;;;9.88;5.57;;;;;;;;;;5044760;28;20268;-72
2023/06/24 00:48:21;;;;;;;9.43;5.63;;;;;;;;;;5051737;28;20218;-72
2023/06/24 00:50:47;;;;;;;19.85;6.95;;;;;;;;;;5051354;28;20439;-72
2023/06/24 00:53:12;;;;;;;11.02;5.47;;;;;;;;;;5050910;28;20009;-73
2023/06/24 00:55:37;;;;;;;9.10;6.07;;;;;;;;;;5049112;28;20021;-72
2023/06/24 00:58:03;;;;;;;10.57;5.60;;;;;;;;;;5050326;28;20913;-72
2023/06/24 01:00:28;;;;;;;11.13;5.90;;;;;;;;;;5050722;28;20029;-72
2023/06/24 01:02:54;;;;;;;10.38;6.05;;;;;;;;;;5051976;28;20016;-72
2023/06/24 01:05:23;;;;;;;12.98;6.72;;;;;;;;;;5051064;28;20017;-72
2023/06/24 01:07:55;;;;;;;8.80;5.35;;;;;;;;;;5050041;28;20063;-72
2023/06/24 01:10:22;;;;;;;11.40;5.63;;;;;;;;;;5048789;28;20033;-72
2023/06/24 01:12:47;;;;;;;11.30;5.50;;;;;;;;;;5049956;28;20474;-72
2023/06/24 01:15:13;;;;;;;13.52;6.00;;;;;;;;;;5048537;28;20124;-72
2023/06/24 01:17:41;;;;;;;9.55;5.88;;;;;;;;;;5051526;28;20032;-72
2023/06/24 01:20:10;;;;;;;12.75;6.20;;;;;;;;;;5049724;28;20025;-72
2023/06/24 01:22:59;;;;;;;11.48;5.07;;;;;;;;;;5050638;28;20023;-72
2023/06/24 01:25:40;;;;;;;9.98;5.82;;;;;;;;;;5036033;28;20033;-72
2023/06/24 01:28:40;;;;;;;10.80;5.60;;;;;;;;;;5051079;28;20029;-72
2023/06/24 01:31:17;;;;;;;10.35;5.88;;;;;;;;;;5002859;28;20074;-72
2023/06/24 01:33:48;;;;;;;9.63;5.78;;;;;;;;;;5041881;28;20559;-72
2023/06/24 01:36:15;;;;;;;13.00;6.03;;;;;;;;;;5046956;28;20107;-72
2023/06/24 01:38:43;;;;;;;8.90;5.97;;;;;;;;;;5049704;28;20020;-72
2023/06/24 01:41:09;;;;;;;8.32;5.47;;;;;;;;;;5048175;28;20024;-72
2023/06/24 01:43:35;;;;;;;10.77;5.97;;;;;;;;;;5049801;28;20009;-72
2023/06/24 01:46:01;;;;;;;11.57;5.68;;;;;;;;;;5047817;28;20029;-72
2023/06/24 01:48:28;;;;;;;10.02;6.13;;;;;;;;;;5047414;28;20375;-72
2023/06/24 01:50:53;;;;;;;9.93;6.10;;;;;;;;;;5050120;28;20435;-72
2023/06/24 01:53:18;;;;;;;10.43;5.63;;;;;;;;;;5050175;28;20107;-72
2023/06/24 01:55:45;;;;;;;12.85;5.72;;;;;;;;;;5049070;28;20099;-72
2023/06/24 01:58:12;;;;;;;12.20;5.40;;;;;;;;;;5048925;28;20432;-72
2023/06/24 02:00:37;;;;;;;8.65;5.88;;;;;;;;;;5046032;28;20033;-72
2023/06/24 02:03:04;;;;;;;14.88;6.65;;;;;;;;;;5049116;28;20070;-72
2023/06/24 02:05:30;;;;;;;11.10;5.20;;;;;;;;;;5050564;28;20017;-72
2023/06/24 02:07:56;;;;;;;8.18;5.35;;;;;;;;;;5049291;28;20031;-72
2023/06/24 02:10:22;;;;;;;9.65;6.30;;;;;;;;;;5049728;28;20582;-72
2023/06/24 02:12:49;;;;;;;12.15;6.15;;;;;;;;;;5048655;28;20084;-72
2023/06/24 02:15:15;;;;;;;9.80;5.53;;;;;;;;;;5050179;28;20462;-72
2023/06/24 02:17:40;;;;;;;9.73;6.05;;;;;;;;;;5050728;28;20035;-72
2023/06/24 02:20:08;;;;;;;10.90;5.75;;;;;;;;;;5048892;28;20682;-72
2023/06/24 02:22:34;;;;;;;10.30;6.15;;;;;;;;;;5050623;28;20103;-72
2023/06/24 02:24:59;;;;;;;13.32;6.30;;;;;;;;;;5046775;28;20097;-72
2023/06/24 02:27:24;;;;;;;9.05;5.78;;;;;;;;;;5048964;28;20037;-72
2023/06/24 02:29:51;;;;;;;9.02;5.93;;;;;;;;;;5050234;28;20032;-72
2023/06/24 02:32:16;;;;;;;10.73;5.93;;;;;;;;;;5049421;28;20099;-72
2023/06/24 02:34:41;;;;;;;11.07;6.03;;;;;;;;;;5048807;28;20104;-72
2023/06/24 02:37:06;;;;;;;14.63;5.97;;;;;;;;;;5050003;28;20470;-72
2023/06/24 02:39:32;;;;;;;9.70;5.83;;;;;;;;;;5049183;28;20283;-72
2023/06/24 02:41:57;;;;;;;13.38;6.00;;;;;;;;;;5049481;28;20263;-72
2023/06/24 02:44:22;;;;;;;10.03;5.33;;;;;;;;;;5049173;28;20057;-72
2023/06/24 02:46:47;;;;;;;9.83;5.37;;;;;;;;;;5048298;28;20028;-72
2023/06/24 02:49:15;;;;;;;11.43;6.07;;;;;;;;;;5049676;28;20251;-72
2023/06/24 02:51:40;;;;;;;10.38;5.97;;;;;;;;;;5050167;28;20017;-72
2023/06/24 02:54:06;;;;;;;10.30;5.90;;;;;;;;;;5047239;28;20662;-72
2023/06/24 02:56:32;;;;;;;11.07;6.35;;;;;;;;;;5049130;28;20279;-72
2023/06/24 02:58:57;;;;;;;9.60;5.53;;;;;;;;;;5049556;28;20013;-72
2023/06/24 03:01:24;;;;;;;12.50;6.13;;;;;;;;;;5050240;28;20026;-72
2023/06/24 03:03:53;;;;;;;13.85;6.55;;;;;;;;;;5049147;28;20271;-72
2023/06/24 03:06:18;;;;;;;14.40;5.90;;;;;;;;;;5047902;28;20024;-72
2023/06/24 03:08:44;;;;;;;10.48;5.68;;;;;;;;;;5046053;28;20524;-72
2023/06/24 03:11:12;;;;;;;13.63;7.30;;;;;;;;;;5049624;28;20264;-72
2023/06/24 03:13:37;;;;;;;12.23;6.63;;;;;;;;;;5047953;28;20037;-72
2023/06/24 03:16:02;;;;;;;12.67;6.40;;;;;;;;;;5049789;28;20038;-72
2023/06/24 03:18:27;;;;;;;15.30;5.85;;;;;;;;;;5049728;28;20244;-72
2023/06/24 03:20:52;;;;;;;9.50;6.00;;;;;;;;;;5048120;28;20062;-72
2023/06/24 03:23:18;;;;;;;11.93;5.33;;;;;;;;;;5048725;28;20021;-72
2023/06/24 03:25:43;;;;;;;13.43;5.73;;;;;;;;;;5048766;28;20274;-72
2023/06/24 03:28:08;;;;;;;8.27;6.00;;;;;;;;;;5048579;28;20614;-72
2023/06/24 03:30:33;;;;;;;9.23;5.80;;;;;;;;;;5049631;28;20288;-72
2023/06/24 03:32:58;;;;;;;11.80;5.73;;;;;;;;;;5049529;28;20263;-72
2023/06/24 03:35:24;;;;;;;12.65;5.88;;;;;;;;;;5051086;28;20082;-72
2023/06/24 03:37:49;;;;;;;11.30;5.70;;;;;;;;;;5052785;28;20017;-72
2023/06/24 03:40:14;;;;;;;11.40;6.63;;;;;;;;;;5050286;28;20106;-72
2023/06/24 03:42:39;;;;;;;10.90;6.17;;;;;;;;;;5053482;28;20047;-72
2023/06/24 03:45:05;;;;;;;13.23;6.20;;;;;;;;;;5048487;28;20263;-72
2023/06/24 03:47:30;;;;;;;14.23;6.57;;;;;;;;;;5048204;28;20255;-72
2023/06/24 03:49:55;;;;;;;18.15;6.30;;;;;;;;;;5052420;28;20021;-72
2023/06/24 03:52:20;;;;;;;11.03;6.03;;;;;;;;;;5052080;28;20025;-72
2023/06/24 03:54:46;;;;;;;11.80;6.47;;;;;;;;;;5046982;28;20414;-72
2023/06/24 03:57:11;;;;;;;11.88;6.63;;;;;;;;;;5051798;28;20366;-72
2023/06/24 03:59:36;;;;;;;16.88;7.05;;;;;;;;;;5051645;28;20087;-72
2023/06/24 04:02:02;;;;;;;9.60;5.90;;;;;;;;;;5051988;28;20474;-72
2023/06/24 04:04:27;;;;;;;12.80;6.68;;;;;;;;;;5049665;28;20290;-72
2023/06/24 04:06:52;;;;;;;9.25;6.07;;;;;;;;;;5050720;28;20499;-72
2023/06/24 04:09:17;;;;;;;8.90;6.03;;;;;;;;;;5050007;28;20461;-72
2023/06/24 04:11:42;;;;;;;10.77;5.37;;;;;;;;;;5051953;28;20279;-72
2023/06/24 04:14:09;;;;;;;14.30;5.82;;;;;;;;;;5052402;28;20286;-72
2023/06/24 04:16:34;;;;;;;8.68;5.80;;;;;;;;;;5048392;28;20104;-72
2023/06/24 04:18:59;;;;;;;10.93;6.38;;;;;;;;;;5052088;28;20101;-72
2023/06/24 04:21:25;;;;;;;11.07;6.40;;;;;;;;;;5045112;28;20837;-72
2023/06/24 04:23:50;;;;;;;10.13;6.20;;;;;;;;;;5052388;28;20078;-72
2023/06/24 04:26:16;;;;;;;13.17;6.60;;;;;;;;;;5052707;28;20478;-72
2023/06/24 04:28:41;;;;;;;13.35;7.22;;;;;;;;;;5052899;28;20266;-72
2023/06/24 04:31:06;;;;;;;10.53;6.17;;;;;;;;;;5051911;28;20366;-72
2023/06/24 04:33:31;;;;;;;12.30;7.03;;;;;;;;;;5050049;28;20275;-72
2023/06/24 04:35:57;;;;;;;13.57;7.70;;;;;;;;;;5049172;28;20402;-72
2023/06/24 04:38:22;;;;;;;11.65;6.47;;;;;;;;;;5049057;28;20271;-72
2023/06/24 04:40:48;;;;;;;14.80;7.50;;;;;;;;;;5051565;28;20009;-72
2023/06/24 04:43:13;;;;;;;17.23;7.70;;;;;;;;;;5051743;28;20044;-72
2023/06/24 04:45:38;;;;;;;12.73;7.32;;;;;;;;;;5050948;28;20025;-72
2023/06/24 04:48:03;;;;;;;13.30;7.27;;;;;;;;;;5047543;28;20036;-72
2023/06/24 04:50:29;;;;;;;12.52;6.90;;;;;;;;;;5050075;28;20044;-72
2023/06/24 04:52:54;;;;;;;11.03;6.70;;;;;;;;;;5052024;28;20020;-72
2023/06/24 04:55:21;;;;;;;12.40;7.70;;;;;;;;;;5051169;28;20735;-72
2023/06/24 04:57:46;;;;;;;15.88;7.60;;;;;;;;;;5048480;28;20113;-72
2023/06/24 05:00:12;;;;;;;13.25;7.47;;;;;;;;;;5048434;28;20103;-72
2023/06/24 05:02:37;;;;;;;12.43;7.18;;;;;;;;;;5051320;28;20017;-72
2023/06/24 05:05:02;;;;;;;17.03;7.80;;;;;;;;;;5048551;28;20029;-72
2023/06/24 05:07:27;;;;;;;13.30;7.78;;;;;;;;;;5046341;28;20268;-72
2023/06/24 05:09:53;;;;;;;12.03;6.63;;;;;;;;;;5050903;28;20027;-72
2023/06/24 05:12:18;;;;;;;13.93;7.77;;;;;;;;;;5050018;28;20025;-72
2023/06/24 05:14:43;;;;;;;15.15;7.38;;;;;;;;;;5050840;28;20671;-72
2023/06/24 05:17:08;;;;;;;11.73;6.20;;;;;;;;;;5045196;28;20053;-72
2023/06/24 05:19:33;;;;;;;15.80;7.30;;;;;;;;;;5047013;28;20020;-72
2023/06/24 05:21:59;;;;;;;11.77;7.50;;;;;;;;;;5049767;28;20806;-72
2023/06/24 05:24:24;;;;;;;12.85;7.10;;;;;;;;;;5049355;28;20283;-72
2023/06/24 05:26:50;;;;;;;12.63;6.82;;;;;;;;;;5050233;28;20070;-72
2023/06/24 05:29:15;;;;;;;10.40;6.20;;;;;;;;;;5051650;28;20409;-72
2023/06/24 05:31:41;;;;;;;11.50;6.70;;;;;;;;;;5051353;28;20107;-71
2023/06/24 05:34:06;;;;;;;13.82;6.80;;;;;;;;;;5048666;28;20045;-71
2023/06/24 05:36:31;;;;;;;9.83;4.67;;;;;;;;;;5048655;28;20021;-71
2023/06/24 05:38:56;;;;;;;9.67;5.50;;;;;;;;;;5050392;28;20815;-71
2023/06/24 05:41:21;;;;;;;13.00;6.63;;;;;;;;;;5046904;28;20317;-71
2023/06/24 05:43:46;;;;;;;14.70;6.90;;;;;;;;;;5050232;28;20482;-71
2023/06/24 05:46:12;;;;;;;5.07;2.95;;;;;;;;;;5051430;28;20269;-71
2023/06/24 05:48:37;;;;;;;2.87;1.90;;;;;;;;;;5048097;28;20108;-71
2023/06/24 05:51:02;;;;;;;19.67;6.23;;;;;;;;;;5049959;28;20316;-71
2023/06/24 05:53:27;;;;;;;9.40;4.90;;;;;;;;;;5047269;28;20264;-71
2023/06/24 05:55:52;;;;;;;9.90;5.20;;;;;;;;;;5050437;28;20082;-71
2023/06/24 05:58:17;;;;;;;12.97;6.33;;;;;;;;;;5047603;28;20021;-71
2023/06/24 06:00:43;;;;;;;13.60;6.70;;;;;;;;;;5046298;28;20021;-71
2023/06/24 06:03:09;;;;;;;13.98;6.72;;;;;;;;;;5050171;28;20266;-71
2023/06/24 06:05:34;;;;;;;12.07;6.32;;;;;;;;;;5050518;28;20013;-71
2023/06/24 06:07:59;;;;;;;10.57;6.93;;;;;;;;;;5042778;28;20017;-71
2023/06/24 06:10:24;;;;;;;11.40;5.30;;;;;;;;;;5048653;28;20310;-71
2023/06/24 06:12:50;;;;;;;11.10;7.20;;;;;;;;;;5044241;28;20036;-71
2023/06/24 06:15:15;;;;;;;12.23;5.88;;;;;;;;;;5046390;28;20481;-71
2023/06/24 06:17:40;;;;;;;10.27;6.32;;;;;;;;;;5047222;28;20021;-71
2023/06/24 06:20:06;;;;;;;11.95;6.55;;;;;;;;;;5046633;28;20013;-71
2023/06/24 06:22:37;;;;;;;13.25;6.80;;;;;;;;;;5044443;28;20029;-71
2023/06/24 06:25:02;;;;;;;12.60;6.80;;;;;;;;;;5040772;28;20393;-71
2023/06/24 06:27:27;;;;;;;16.73;8.67;;;;;;;;;;5045518;28;20017;-71
2023/06/24 06:29:52;;;;;;;14.20;7.25;;;;;;;;;;5044065;28;20284;-71
2023/06/24 06:32:17;;;;;;;15.70;7.63;;;;;;;;;;5042414;28;20024;-71
2023/06/24 06:34:43;;;;;;;14.60;8.57;;;;;;;;;;5042872;28;20458;-71
2023/06/24 06:37:08;;;;;;;13.27;7.80;;;;;;;;;;5043490;28;20280;-71
2023/06/24 06:39:33;;;;;;;12.23;7.40;;;;;;;;;;5039449;28;20322;-71
2023/06/24 06:41:58;;;;;;;15.27;6.93;;;;;;;;;;5039232;28;20367;-71
2023/06/24 06:44:23;;;;;;;18.63;8.50;;;;;;;;;;5040406;28;20016;-71
2023/06/24 06:46:49;;;;;;;13.90;8.57;;;;;;;;;;5043273;28;20282;-71
2023/06/24 06:49:14;;;;;;;13.43;8.38;;;;;;;;;;5039731;28;20370;-71
2023/06/24 06:51:39;;;;;;;14.57;7.20;;;;;;;;;;5044476;28;20037;-71
2023/06/24 06:54:04;;;;;;;16.53;7.47;;;;;;;;;;5041170;28;20272;-72
2023/06/24 06:56:29;;;;;;;19.80;9.50;;;;;;;;;;5043603;28;20289;-71
2023/06/24 06:58:55;;;;;;;11.97;7.30;;;;;;;;;;5042278;28;20730;-71
2023/06/24 07:01:20;;;;;;;19.15;8.45;;;;;;;;;;5041575;28;20710;-71
2023/06/24 07:03:45;;;;;;;14.37;9.07;;;;;;;;;;5042598;28;20202;-71
2023/06/24 07:06:10;;;;;;;23.33;9.98;;;;;;;;;;5047375;28;20271;-71
2023/06/24 07:08:36;;;;;;;18.45;9.55;;;;;;;;;;5047673;28;20060;-71
2023/06/24 07:11:04;;;;;;;20.02;10.13;;;;;;;;;;5051937;28;20063;-71
2023/06/24 07:13:29;;;;;;;22.00;10.23;;;;;;;;;;5051579;28;20041;-71
2023/06/24 07:15:54;;;;;;;16.47;9.40;;;;;;;;;;5050913;28;20370;-71
2023/06/24 07:18:19;;;;;;;16.37;9.83;;;;;;;;;;5050857;28;20044;-71
2023/06/24 07:20:45;;;;;;;16.25;9.98;;;;;;;;;;5051773;28;20035;-71
2023/06/24 07:23:10;;;;;;;16.20;8.25;;;;;;;;;;5044042;28;20434;-72
2023/06/24 07:25:35;;;;;;;20.40;10.07;;;;;;;;;;5044748;28;20013;-71
2023/06/24 07:28:01;;;;;;;17.77;9.17;;;;;;;;;;5045838;28;20295;-71
2023/06/24 07:30:26;;;;;;;16.80;9.15;;;;;;;;;;5050738;28;20021;-72
2023/06/24 07:32:51;;;;;;;15.53;9.77;;;;;;;;;;5049805;28;20105;-72
2023/06/24 07:35:16;;;;;;;16.73;10.00;;;;;;;;;;5047675;28;20647;-71
2023/06/24 07:37:41;;;;;;;24.60;9.80;;;;;;;;;;5047699;28;20082;-71
2023/06/24 07:40:07;;;;;;;23.77;10.53;;;;;;;;;;5049805;28;20021;-71
2023/06/24 07:42:33;;;;;;;27.17;11.73;;;;;;;;;;5049239;28;20438;-71
2023/06/24 07:44:58;;;;;;;18.40;11.10;;;;;;;;;;5044800;28;20104;-71
2023/06/24 07:47:23;;;;;;;17.30;10.97;;;;;;;;;;5051196;28;20289;-71
2023/06/24 07:49:48;;;;;;;25.13;11.63;;;;;;;;;;5053404;28;20021;-71
2023/06/24 07:52:13;;;;;;;20.00;10.30;;;;;;;;;;5053371;28;20025;-72
2023/06/24 07:54:39;;;;;;;19.88;11.10;;;;;;;;;;5052355;28;20303;-72
2023/06/24 07:57:04;;;;;;;18.30;11.30;;;;;;;;;;5053236;28;20556;-72
2023/06/24 07:59:29;;;;;;;20.87;11.33;;;;;;;;;;5051036;28;20756;-72
2023/06/24 08:01:54;;;;;;;17.90;10.55;;;;;;;;;;5051905;28;20267;-72
2023/06/24 08:04:20;;;;;;;17.20;9.70;;;;;;;;;;5052954;28;20032;-72
2023/06/24 08:06:45;;;;;;;21.83;9.80;;;;;;;;;;5053073;28;20251;-72
2023/06/24 08:09:10;;;;;;;17.20;10.03;;;;;;;;;;5052540;28;20051;-72
2023/06/24 08:11:35;;;;;;;21.17;10.50;;;;;;;;;;5052559;28;20351;-71
2023/06/24 08:14:01;;;;;;;19.20;10.97;;;;;;;;;;5051397;28;20013;-71
2023/06/24 08:16:27;;;;;;;23.35;10.70;;;;;;;;;;5051490;28;20283;-71
2023/06/24 08:18:53;;;;;;;18.85;9.55;;;;;;;;;;5048885;28;20017;-72
2023/06/24 08:21:18;;;;;;;23.48;9.98;;;;;;;;;;5048086;28;20378;-72
2023/06/24 08:23:43;;;;;;;21.13;9.23;;;;;;;;;;5050232;28;20021;-71
2023/06/24 08:26:08;;;;;;;16.80;9.47;;;;;;;;;;5048967;28;20091;-71
2023/06/24 08:28:34;;;;;;;15.20;8.90;;;;;;;;;;5049668;28;20020;-72
2023/06/24 08:30:59;;;;;;;21.48;9.18;;;;;;;;;;5051237;28;20279;-72
2023/06/24 08:33:24;;;;;;;14.70;8.82;;;;;;;;;;5052399;28;20025;-72
2023/06/24 08:35:49;;;;;;;16.92;9.27;;;;;;;;;;5047697;28;20565;-71
2023/06/24 08:38:14;;;;;;;22.93;10.10;;;;;;;;;;5048822;28;20009;-71
2023/06/24 08:40:40;;;;;;;18.33;9.57;;;;;;;;;;5048025;28;20434;-71
2023/06/24 08:43:05;;;;;;;16.77;8.87;;;;;;;;;;5047796;28;20083;-72
2023/06/24 08:45:31;;;;;;;19.42;9.82;;;;;;;;;;5050710;28;20275;-72
2023/06/24 08:47:56;;;;;;;18.35;9.80;;;;;;;;;;5050838;28;20036;-71
2023/06/24 08:50:23;;;;;;;15.95;9.52;;;;;;;;;;5052509;28;20432;-71
2023/06/24 08:52:50;;;;;;;22.02;11.00;;;;;;;;;;5051213;28;20536;-72
2023/06/24 08:55:16;;;;;;;18.33;10.88;;;;;;;;;;5051474;28;20021;-71
2023/06/24 08:57:41;;;;;;;22.02;11.52;;;;;;;;;;5051141;28;20032;-72
2023/06/24 09:00:10;;;;;;;32.40;11.80;;;;;;;;;;5051346;28;20363;-71
2023/06/24 09:02:37;;;;;;;23.25;11.40;;;;;;;;;;5045512;28;20086;-71
2023/06/24 09:05:03;;;;;;;21.45;10.13;;;;;;;;;;5047358;28;20055;-71
2023/06/24 09:07:29;;;;;;;21.88;9.45;;;;;;;;;;5050669;28;20024;-72
2023/06/24 09:09:54;;;;;;;19.20;9.77;;;;;;;;;;5052178;28;20094;-72
2023/06/24 09:12:19;;;;;;;25.23;10.93;;;;;;;;;;5052144;28;20024;-72
2023/06/24 09:14:48;;;;;;;24.23;9.17;;;;;;;;;;5051990;28;20028;-72
2023/06/24 09:17:13;;;;;;;21.45;9.90;;;;;;;;;;5050808;28;20024;-72
2023/06/24 09:19:39;;;;;;;16.43;9.70;;;;;;;;;;5051729;28;20008;-72
2023/06/24 09:22:05;;;;;;;17.85;9.93;;;;;;;;;;5047941;28;20013;-71
2023/06/24 09:24:31;;;;;;;17.33;10.25;;;;;;;;;;5051879;28;20013;-71
2023/06/24 09:26:59;;;;;;;17.08;10.13;;;;;;;;;;5051826;28;20029;-72
2023/06/24 09:29:28;;;;;;;16.70;9.23;;;;;;;;;;5051775;28;20534;-71
2023/06/24 09:31:54;;;;;;;15.38;8.70;;;;;;;;;;5049981;28;20393;-71
2023/06/24 09:34:19;;;;;;;15.32;8.73;;;;;;;;;;5051523;28;20023;-71
2023/06/24 09:36:50;;;;;;;19.13;9.30;;;;;;;;;;5050372;28;20025;-72
2023/06/24 09:39:15;;;;;;;18.65;8.93;;;;;;;;;;5051642;28;20045;-72
2023/06/24 09:41:41;;;;;;;18.23;8.60;;;;;;;;;;5051444;28;20449;-71
2023/06/24 09:44:12;;;;;;;20.05;8.07;;;;;;;;;;5051343;28;20507;-72
2023/06/24 09:46:38;;;;;;;19.92;8.73;;;;;;;;;;5050508;28;20104;-72
2023/06/24 09:49:06;;;;;;;13.60;7.43;;;;;;;;;;5050443;28;20105;-72
2023/06/24 09:51:34;;;;;;;15.80;7.20;;;;;;;;;;5050541;28;20032;-72
2023/06/24 09:54:00;;;;;;;14.45;7.50;;;;;;;;;;5051105;28;20025;-72
2023/06/24 09:56:25;;;;;;;12.68;6.68;;;;;;;;;;5051328;28;20032;-72
2023/06/24 09:58:50;;;;;;;15.15;7.78;;;;;;;;;;5050261;28;20524;-72
2023/06/24 10:01:16;;;;;;;16.87;9.23;;;;;;;;;;5050994;28;20021;-72
2023/06/24 10:03:42;;;;;;;23.20;7.25;;;;;;;;;;5051000;28;20310;-71
2023/06/24 10:06:07;;;;;;;14.00;6.65;;;;;;;;;;5049714;28;20033;-72
2023/06/24 10:08:33;;;;;;;15.40;6.95;;;;;;;;;;5051026;28;20461;-71
2023/06/24 10:10:58;;;;;;;13.63;6.65;;;;;;;;;;5050990;28;20096;-71
2023/06/24 10:13:25;;;;;;;12.68;7.20;;;;;;;;;;5049682;28;20025;-71
2023/06/24 10:15:50;;;;;;;14.73;6.50;;;;;;;;;;5050615;28;20041;-71
2023/06/24 10:18:31;;;;;;;18.33;6.97;;;;;;;;;;5051087;28;20049;-72
2023/06/24 10:20:58;;;;;;;13.20;6.10;;;;;;;;;;5049944;28;20520;-72
2023/06/24 10:23:29;;;;;;;14.82;6.30;;;;;;;;;;5050880;28;20101;-72
2023/06/24 10:25:55;;;;;;;11.55;6.15;;;;;;;;;;5051006;28;20104;-72
2023/06/24 10:28:20;;;;;;;12.73;5.70;;;;;;;;;;5049923;28;20104;-71
2023/06/24 10:30:54;;;;;;;13.13;6.73;;;;;;;;;;5050684;28;20009;-72
2023/06/24 10:33:19;;;;;;;16.08;5.80;;;;;;;;;;5050744;28;20021;-72
2023/06/24 10:35:44;;;;;;;14.63;6.40;;;;;;;;;;5046364;28;20028;-72
2023/06/24 10:38:10;;;;;;;9.65;5.38;;;;;;;;;;5050485;28;20021;-72
2023/06/24 10:40:39;;;;;;;13.73;5.47;;;;;;;;;;5050525;28;20029;-72
2023/06/24 10:43:25;;;;;;;9.10;5.45;;;;;;;;;;5050230;28;20479;-72
2023/06/24 10:45:50;;;;;;;12.95;5.13;;;;;;;;;;5050408;28;20385;-72
2023/06/24 10:48:16;;;;;;;9.48;5.93;;;;;;;;;;5049569;28;20024;-71
2023/06/24 10:50:41;;;;;;;13.25;6.22;;;;;;;;;;5049473;28;20087;-72
2023/06/24 10:53:08;;;;;;;6.67;3.30;;;;;;;;;;5050138;28;20097;-71
2023/06/24 10:55:35;;;;;;;7.45;3.72;;;;;;;;;;5050297;28;20017;-72
2023/06/24 10:58:12;;;;;;;10.60;4.13;;;;;;;;;;5047384;28;20044;-71
2023/06/24 11:00:37;;;;;;;11.10;4.47;;;;;;;;;;5049592;28;20035;-71
2023/06/24 11:03:12;;;;;;;7.93;4.13;;;;;;;;;;5049061;28;20529;-72
2023/06/24 11:05:41;;;;;;;13.27;5.03;;;;;;;;;;5044609;28;20028;-72
2023/06/24 11:08:06;;;;;;;6.70;3.30;;;;;;;;;;5050011;28;20052;-71
2023/06/24 11:10:31;;;;;;;6.93;3.30;;;;;;;;;;5048873;28;20482;-71
2023/06/24 11:12:58;;;;;;;4.87;3.40;;;;;;;;;;5049952;28;20029;-72
2023/06/24 11:15:24;;;;;;;6.43;3.33;;;;;;;;;;5050129;28;20013;-72
2023/06/24 11:17:50;;;;;;;8.88;3.80;;;;;;;;;;5049043;28;20017;-71
2023/06/24 11:20:15;;;;;;;4.05;1.98;;;;;;;;;;5048998;28;20028;-71
2023/06/24 11:22:41;;;;;;;6.87;3.90;;;;;;;;;;5050082;28;20485;-71
2023/06/24 11:25:13;;;;;;;7.13;3.92;;;;;;;;;;5049817;28;20017;-72
2023/06/24 11:27:38;;;;;;;6.85;3.42;;;;;;;;;;5039911;28;20104;-72
2023/06/24 11:30:04;;;;;;;6.60;3.30;;;;;;;;;;5040099;28;20151;-72
2023/06/24 11:32:39;;;;;;;4.20;2.72;;;;;;;;;;5040228;28;20552;-72
2023/06/24 11:35:05;;;;;;;5.95;3.08;;;;;;;;;;5048918;28;20021;-72
2023/06/24 11:37:32;;;;;;;10.63;3.42;;;;;;;;;;5049120;28;20029;-72
2023/06/24 11:40:04;;;;;;;5.00;3.20;;;;;;;;;;5046068;28;20478;-72
2023/06/24 11:42:30;;;;;;;5.88;3.58;;;;;;;;;;5047005;28;20036;-72
2023/06/24 11:44:59;;;;;;;6.57;3.42;;;;;;;;;;5046769;28;20009;-72
2023/06/24 11:47:24;;;;;;;6.13;2.93;;;;;;;;;;5047088;28;20017;-72
2023/06/24 11:49:54;;;;;;;7.13;3.00;;;;;;;;;;5045627;28;20624;-72
2023/06/24 11:52:27;;;;;;;6.35;3.00;;;;;;;;;;5046184;28;20791;-72
2023/06/24 11:54:52;;;;;;;3.85;2.80;;;;;;;;;;5049496;28;20435;-72
2023/06/24 11:57:17;;;;;;;8.93;3.47;;;;;;;;;;5049812;28;20025;-72
2023/06/24 11:59:42;;;;;;;5.47;3.00;;;;;;;;;;5047426;28;20779;-72
2023/06/24 12:02:13;;;;;;;4.77;2.97;;;;;;;;;;5047609;28;20059;-72
2023/06/24 12:04:40;;;;;;;6.03;3.15;;;;;;;;;;5051323;28;20025;-72
2023/06/24 12:07:05;;;;;;;7.45;3.60;;;;;;;;;;5052169;28;20017;-72
2023/06/24 12:09:31;;;;;;;8.07;3.20;;;;;;;;;;5050590;28;20027;-72
2023/06/24 12:11:56;;;;;;;4.72;3.10;;;;;;;;;;5051497;28;20436;-72
2023/06/24 12:14:21;;;;;;;6.70;3.50;;;;;;;;;;5052056;28;20634;-71
2023/06/24 12:16:46;;;;;;;5.70;2.50;;;;;;;;;;5049879;28;20021;-72
2023/06/24 12:19:12;;;;;;;8.23;3.20;;;;;;;;;;5051548;28;20052;-73
2023/06/24 12:21:37;;;;;;;6.10;3.10;;;;;;;;;;5052253;28;20488;-72
2023/06/24 12:24:03;;;;;;;7.75;3.67;;;;;;;;;;5049880;28;20029;-72
2023/06/24 12:26:28;;;;;;;5.55;3.42;;;;;;;;;;5048826;28;20025;-73
2023/06/24 12:28:55;;;;;;;4.60;2.67;;;;;;;;;;5050696;28;20459;-72
2023/06/24 12:31:20;;;;;;;7.18;3.30;;;;;;;;;;5045597;28;20629;-72
2023/06/24 12:33:45;;;;;;;10.13;2.90;;;;;;;;;;5050539;28;20025;-72
2023/06/24 12:36:10;;;;;;;5.83;2.70;;;;;;;;;;5050520;28;20096;-72
2023/06/24 12:38:36;;;;;;;5.60;2.97;;;;;;;;;;5051960;28;20271;-72
2023/06/24 12:41:01;;;;;;;5.03;2.97;;;;;;;;;;5050750;28;20013;-72
2023/06/24 12:43:26;;;;;;;14.90;3.90;;;;;;;;;;5048261;28;20024;-72
2023/06/24 12:45:52;;;;;;;6.10;3.60;;;;;;;;;;5044265;28;20025;-72
2023/06/24 12:48:17;;;;;;;6.77;2.93;;;;;;;;;;5050430;28;20028;-72
2023/06/24 12:50:42;;;;;;;11.33;3.27;;;;;;;;;;5052530;28;20029;-72
2023/06/24 12:53:08;;;;;;;6.30;3.00;;;;;;;;;;5052545;28;20096;-72
2023/06/24 12:55:33;;;;;;;7.20;3.20;;;;;;;;;;5052501;28;20024;-72
2023/06/24 12:57:59;;;;;;;5.90;3.00;;;;;;;;;;5052473;28;20287;-72
2023/06/24 13:00:24;;;;;;;10.65;3.25;;;;;;;;;;5052307;28;20025;-72
2023/06/24 13:02:50;;;;;;;5.65;3.67;;;;;;;;;;5049896;28;20374;-71
2023/06/24 13:05:15;;;;;;;7.97;3.20;;;;;;;;;;5050621;28;20079;-72
2023/06/24 13:07:41;;;;;;;7.38;3.65;;;;;;;;;;5052483;28;20021;-72
2023/06/24 13:10:06;;;;;;;8.25;3.40;;;;;;;;;;5052145;28;20437;-72
2023/06/24 13:12:32;;;;;;;7.25;3.38;;;;;;;;;;5052378;28;20036;-73
2023/06/24 13:14:57;;;;;;;8.55;3.58;;;;;;;;;;5051191;28;20028;-72
2023/06/24 13:17:22;;;;;;;7.37;3.70;;;;;;;;;;5050716;28;20033;-72
2023/06/24 13:19:47;;;;;;;5.50;3.93;;;;;;;;;;5052004;28;20260;-72
2023/06/24 13:22:12;;;;;;;6.77;3.67;;;;;;;;;;5051662;28;20092;-72
2023/06/24 13:24:38;;;;;;;6.65;3.65;;;;;;;;;;5051811;28;20078;-72
2023/06/24 13:27:03;;;;;;;8.82;3.45;;;;;;;;;;5048044;28;20633;-73
2023/06/24 13:29:28;;;;;;;6.97;3.83;;;;;;;;;;5049818;28;20021;-72
2023/06/24 13:31:53;;;;;;;8.63;3.63;;;;;;;;;;5049737;28;20024;-73
2023/06/24 13:34:19;;;;;;;9.60;3.83;;;;;;;;;;5050159;28;20299;-73
2023/06/24 13:36:44;;;;;;;8.10;3.42;;;;;;;;;;5047478;28;20067;-73
2023/06/24 13:39:12;;;;;;;7.47;3.57;;;;;;;;;;5050537;28;20025;-72
2023/06/24 13:41:37;;;;;;;5.38;3.28;;;;;;;;;;5047847;28;20427;-72
2023/06/24 13:44:03;;;;;;;8.97;3.83;;;;;;;;;;5047060;28;20112;-73
2023/06/24 13:46:28;;;;;;;5.20;3.55;;;;;;;;;;5044601;28;20794;-73
2023/06/24 13:48:54;;;;;;;9.07;3.65;;;;;;;;;;5047089;28;20441;-73
2023/06/24 13:51:20;;;;;;;5.90;3.15;;;;;;;;;;5046483;28;20043;-73
2023/06/24 13:53:45;;;;;;;7.35;3.58;;;;;;;;;;5050763;28;20074;-73
2023/06/24 13:56:10;;;;;;;9.10;3.95;;;;;;;;;;5050331;28;20025;-73
2023/06/24 13:58:36;;;;;;;5.30;3.00;;;;;;;;;;5051150;28;20549;-73
2023/06/24 14:01:01;;;;;;;5.90;3.07;;;;;;;;;;5049395;28;20328;-73
2023/06/24 14:03:26;;;;;;;5.40;3.20;;;;;;;;;;5048109;28;20021;-73
2023/06/24 14:05:51;;;;;;;4.33;2.60;;;;;;;;;;5050877;28;20251;-73
2023/06/24 14:08:16;;;;;;;6.63;3.07;;;;;;;;;;5049740;28;20074;-73
2023/06/24 14:10:41;;;;;;;4.95;2.67;;;;;;;;;;5048322;28;20504;-73
2023/06/24 14:13:07;;;;;;;5.63;3.03;;;;;;;;;;5046307;28;20031;-73
2023/06/24 14:15:32;;;;;;;5.63;2.50;;;;;;;;;;5049429;28;20025;-73
2023/06/24 14:17:57;;;;;;;9.13;2.40;;;;;;;;;;5045475;28;20702;-73
2023/06/24 14:20:24;;;;;;;8.47;3.03;;;;;;;;;;5050538;28;20029;-73
2023/06/24 14:22:49;;;;;;;4.28;2.55;;;;;;;;;;5049819;28;20457;-73
2023/06/24 14:25:15;;;;;;;6.80;2.90;;;;;;;;;;5047707;28;20041;-73
2023/06/24 14:27:40;;;;;;;5.50;2.90;;;;;;;;;;5050956;28;20346;-73